createdAt,value
2022-12-18T00:01:19.476Z,98766.38247800643
2022-12-18T00:04:22.073Z,98767.62813250594
2022-12-18T00:07:17.300Z,98776.12287716889
2022-12-18T00:11:19.241Z,98780.2612410025
2022-12-18T00:14:16.857Z,98784.85194330412
2022-12-18T00:17:16.774Z,98785.44026414855
2022-12-18T00:21:17.211Z,98787.54106795164
2022-12-18T00:24:17.212Z,98796.7343110121
2022-12-18T00:27:17.029Z,98797.30478699478
2022-12-18T00:31:19.313Z,98798.75983582211
2022-12-18T00:34:17.182Z,98796.75606543489
2022-12-18T00:37:20.267Z,98801.46714427386
2022-12-18T00:42:56.453Z,98803.64438004063
2022-12-18T00:44:18.297Z,98803.77173660634
2022-12-18T00:47:16.765Z,98807.49699536565
2022-12-18T00:51:21.711Z,98814.20040320541
2022-12-18T00:54:17.710Z,98815.69851199751
2022-12-18T00:57:17.092Z,98816.25168535854
2022-12-18T01:01:16.905Z,98824.39131965068
2022-12-18T01:04:16.858Z,98827.24007747119
2022-12-18T01:07:16.830Z,98836.10320744233
2022-12-18T01:11:18.028Z,98843.06719230748
2022-12-18T01:14:16.560Z,98843.49142603444
2022-12-18T01:17:16.334Z,98847.00370559942
2022-12-18T01:21:16.716Z,98852.58053048974
2022-12-18T01:24:16.705Z,98859.84410373049
2022-12-18T01:27:16.722Z,98861.83415970557
2022-12-18T01:31:19.726Z,98868.17077600438
2022-12-18T01:34:17.108Z,98869.29807144043
2022-12-18T01:37:17.201Z,98876.50842526024
2022-12-18T01:41:20.174Z,98876.9049508877
2022-12-18T01:51:16.985Z,98886.61200411287
2022-12-18T01:54:17.407Z,98889.05881803055
2022-12-18T01:57:17.191Z,98893.51019434124
2022-12-18T02:01:17.088Z,98896.74175890141
2022-12-18T02:04:21.978Z,98902.41607469943
2022-12-18T02:07:23.474Z,98904.96709627725
2022-12-18T02:11:22.610Z,98906.18377490116
2022-12-18T02:14:25.962Z,98908.39195342289
2022-12-18T02:17:21.144Z,98909.41775403733
2022-12-18T02:21:30.231Z,98912.65738652175
2022-12-18T02:24:28.987Z,98909.07661869242
2022-12-18T02:27:17.234Z,98912.4122852461
2022-12-18T02:31:21.312Z,98910.21875132006
2022-12-18T02:34:18.729Z,98908.54198108976
2022-12-18T02:37:19.451Z,98907.40788134861
2022-12-18T02:41:18.068Z,98907.0938200879
2022-12-18T02:44:17.402Z,98907.93497535508
2022-12-18T02:47:20.426Z,98907.16111564873
2022-12-18T02:51:23.405Z,98912.0826643534
2022-12-18T02:54:27.856Z,98915.78270462461
2022-12-18T02:57:24.305Z,98918.49013056574
2022-12-18T03:01:23.024Z,98921.43579993551
2022-12-18T03:04:20.817Z,98922.85312624778
2022-12-18T03:07:23.620Z,98921.94955749836
2022-12-18T03:11:17.002Z,98930.1301335394
2022-12-18T03:14:20.265Z,98928.5115966213
2022-12-18T03:17:20.914Z,98929.15847333075
2022-12-18T03:21:19.788Z,98932.19237843854
2022-12-18T03:24:19.702Z,98936.71441938926
2022-12-18T03:27:20.414Z,98935.4292961876
2022-12-18T03:31:18.485Z,98928.53556808265
2022-12-18T03:34:23.646Z,98934.17702757512
2022-12-18T03:37:17.129Z,98937.12232105836
2022-12-18T03:41:23.872Z,98938.02685376129
2022-12-18T03:44:27.029Z,98946.25586386031
2022-12-18T03:47:25.523Z,98947.57023986794
2022-12-18T03:51:23.454Z,98951.24255778495
2022-12-18T03:54:17.563Z,98954.52607943668
2022-12-18T03:57:19.782Z,98956.32021556968
2022-12-18T04:01:18.238Z,98961.94830020919
2022-12-18T04:04:19.110Z,98958.75362805718
2022-12-18T04:07:17.296Z,98962.108694497
2022-12-18T04:11:16.943Z,98965.07118307176
2022-12-18T04:14:18.225Z,98963.32802987527
2022-12-18T04:17:17.649Z,98961.14080842107
2022-12-18T04:21:16.704Z,98958.83154671405
2022-12-18T04:24:17.183Z,98964.88711382076
2022-12-18T04:27:17.091Z,98971.40570332724
2022-12-18T04:31:16.600Z,98977.39795334394
2022-12-18T04:34:16.878Z,98982.44184079244
2022-12-18T04:37:16.816Z,98983.69528896805
2022-12-18T04:41:16.771Z,98990.03324346205
2022-12-18T04:44:17.394Z,98992.33222381325
2022-12-18T04:47:16.815Z,99001.17860121012
2022-12-18T04:51:16.339Z,99004.17240488448
2022-12-18T04:54:20.759Z,99005.46568713109
2022-12-18T04:57:16.957Z,99009.22032365004
2022-12-18T05:01:18.379Z,99010.63958334517
2022-12-18T05:04:17.345Z,99015.19166254117
2022-12-18T05:07:17.234Z,99025.33520550984
2022-12-18T05:11:17.275Z,99020.58161228399
2022-12-18T05:14:17.325Z,99025.97711755437
2022-12-18T05:17:17.310Z,99028.25497157981
2022-12-18T05:21:16.232Z,99033.4736061119
2022-12-18T05:24:16.485Z,99041.84621278087
2022-12-18T05:27:16.684Z,99045.82377588992
2022-12-18T05:31:15.971Z,99049.81365904569
2022-12-18T05:34:16.459Z,99053.40588894441
2022-12-18T05:37:16.401Z,99056.55447592706
2022-12-18T05:41:16.410Z,99060.44165065362
2022-12-18T05:44:16.734Z,99064.53635882332
2022-12-18T05:47:16.984Z,99065.81296098862
2022-12-18T05:51:18.070Z,99073.76898254047
2022-12-18T05:54:16.653Z,99076.01734434973
2022-12-18T05:57:16.736Z,99079.71197173523
2022-12-18T06:01:19.277Z,99083.4240610234
2022-12-18T06:04:16.891Z,99085.49448744042
2022-12-18T06:07:16.658Z,99091.48730331508
2022-12-18T06:11:18.981Z,99093.79639248738
2022-12-18T06:14:18.567Z,99102.7335145289
2022-12-18T06:17:16.398Z,99100.84346671903
2022-12-18T06:21:16.163Z,99108.60988351185
2022-12-18T06:24:16.740Z,99108.6570878573
2022-12-18T06:27:16.557Z,99114.37790094894
2022-12-18T06:31:16.794Z,99126.91650517486
2022-12-18T06:34:16.847Z,99125.84660384525
2022-12-18T06:37:16.730Z,99126.12934355269
2022-12-18T06:41:19.057Z,99140.20605158617
2022-12-18T06:44:16.961Z,99145.88514228539
2022-12-18T06:47:16.747Z,99145.94291290829
2022-12-18T06:51:18.268Z,99145.62924431206
2022-12-18T06:54:16.756Z,99152.2118988109
2022-12-18T06:57:16.716Z,99158.73779021669
2022-12-18T07:01:16.270Z,99159.54883599344
2022-12-18T07:04:16.616Z,99164.07964016999
2022-12-18T07:07:16.473Z,99161.11738458296
2022-12-18T07:11:17.421Z,99168.11969251659
2022-12-18T07:14:16.538Z,99173.14776100987
2022-12-18T07:17:16.724Z,99176.54244547528
2022-12-18T07:21:18.844Z,99184.65787465457
2022-12-18T07:24:16.399Z,99184.84504052642
2022-12-18T07:27:16.211Z,99191.41836359292
2022-12-18T07:31:20.305Z,99196.37765955194
2022-12-18T07:34:17.428Z,99196.43194863813
2022-12-18T07:37:17.189Z,99199.28224504842
2022-12-18T07:41:16.819Z,99208.30796244531
2022-12-18T07:44:16.377Z,99204.73728852991
2022-12-18T07:47:16.312Z,99214.82340197745
2022-12-18T07:51:17.568Z,99215.13725685452
2022-12-18T07:54:16.877Z,99222.67510673062
2022-12-18T07:57:41.792Z,99224.96007763252
2022-12-18T08:01:16.270Z,99224.87369012155
2022-12-18T08:04:16.942Z,99230.29386873906
2022-12-18T08:07:16.630Z,99236.89363493558
2022-12-18T08:11:16.443Z,99244.0309131405
2022-12-18T08:14:16.886Z,99246.75077906993
2022-12-18T08:17:16.717Z,99247.25422148484
2022-12-18T08:21:18.652Z,99253.65683751358
2022-12-18T08:24:17.156Z,99255.09477634126
2022-12-18T08:27:30.314Z,99257.3935441549
2022-12-18T08:31:17.306Z,99256.50794178726
2022-12-18T08:34:17.056Z,99262.30627270034
2022-12-18T08:37:16.977Z,99264.69357163218
2022-12-18T08:41:17.205Z,99264.33414260541
2022-12-18T08:44:48.412Z,99262.08315567582
2022-12-18T08:47:16.377Z,99269.98378574662
2022-12-18T08:51:16.964Z,99264.83255179292
2022-12-18T08:54:16.959Z,99260.14472221686
2022-12-18T08:57:17.297Z,99257.98348331933
2022-12-18T09:01:16.564Z,99260.04952120614
2022-12-18T09:04:17.094Z,99270.912113099
2022-12-18T09:07:17.003Z,99273.08151171371
2022-12-18T09:11:21.594Z,99274.0463934112
2022-12-18T09:14:17.076Z,99274.27106302451
2022-12-18T09:17:17.450Z,99280.88542048619
2022-12-18T09:21:18.819Z,99286.78697512925
2022-12-18T09:24:17.033Z,99286.81743312014
2022-12-18T09:27:16.965Z,99288.39979149254
2022-12-18T09:31:19.500Z,99291.73763450712
2022-12-18T09:34:16.543Z,99296.16398098021
2022-12-18T09:37:16.227Z,99300.2909070014
2022-12-18T09:41:44.209Z,99304.22218417074
2022-12-18T09:44:23.432Z,99300.5074298284
2022-12-18T09:47:22.178Z,99303.13229171591
2022-12-18T09:51:19.931Z,99299.75598023982
2022-12-18T09:54:22.302Z,99294.44894931572
2022-12-18T09:57:20.839Z,99292.04989619146
2022-12-18T10:01:22.562Z,99295.42687293046
2022-12-18T10:04:17.264Z,99285.00097558994
2022-12-18T10:07:25.022Z,99287.7827658778
2022-12-18T10:11:29.177Z,99290.93627234778
2022-12-18T10:14:23.702Z,99286.61709173868
2022-12-18T10:17:35.673Z,99284.02121911284
2022-12-18T10:21:21.858Z,99286.1976289225
2022-12-18T10:24:26.939Z,99281.1002579983
2022-12-18T10:27:21.652Z,99286.05042831785
2022-12-18T10:31:19.435Z,99281.95549009473
2022-12-18T10:34:17.004Z,99276.09497954664
2022-12-18T10:37:18.876Z,99273.88396915012
2022-12-18T10:41:26.714Z,99271.45595772505
2022-12-18T10:44:19.897Z,99266.0157573411
2022-12-18T10:47:19.208Z,99261.44423475262
2022-12-18T10:51:23.347Z,99256.09073592993
2022-12-18T10:54:18.860Z,99255.18983741867
2022-12-18T10:57:29.471Z,99263.05053756866
2022-12-18T11:01:18.450Z,99256.77821243333
2022-12-18T11:04:21.285Z,99256.58320346943
2022-12-18T11:07:17.075Z,99255.94229562869
2022-12-18T11:11:21.222Z,99257.64922926572
2022-12-18T11:14:21.799Z,99259.1278607415
2022-12-18T11:17:25.758Z,99260.17631680409
2022-12-18T11:21:16.731Z,99257.33873437552
2022-12-18T11:24:23.180Z,99251.11970350602
2022-12-18T11:27:18.797Z,99254.40496339467
2022-12-18T11:31:24.493Z,99246.15477635947
2022-12-18T11:34:30.023Z,99247.99224791514
2022-12-18T11:37:20.760Z,99245.27148202923
2022-12-18T11:41:25.664Z,99243.39158520414
2022-12-18T11:44:26.594Z,99247.71340727166
2022-12-18T11:47:25.340Z,99243.12866976399
2022-12-18T11:51:28.463Z,99240.92018845823
2022-12-18T11:54:17.531Z,99241.58566261803
2022-12-18T11:57:32.230Z,99237.3478485724
2022-12-18T12:01:29.949Z,99238.7811318403
2022-12-18T12:04:50.435Z,99233.22024208347
2022-12-18T12:07:26.148Z,99232.65628272848
2022-12-18T12:11:28.641Z,99226.55550500791
2022-12-18T12:14:29.877Z,99224.3447993727
2022-12-18T12:17:27.976Z,99223.12749662568
2022-12-18T12:21:25.861Z,99220.05719810732
2022-12-18T12:24:33.595Z,99216.70985157364
2022-12-18T12:27:28.587Z,99214.65764068511
2022-12-18T12:31:32.199Z,99214.76545231344
2022-12-18T12:34:20.368Z,99212.72171147642
2022-12-18T12:37:44.251Z,99210.97542490727
2022-12-18T12:43:25.916Z,99213.99694263808
2022-12-18T12:44:22.356Z,99221.51396271875
2022-12-18T12:47:23.063Z,99215.32253520175
2022-12-18T12:51:19.825Z,99213.0480817838
2022-12-18T12:54:21.512Z,99218.68238041758
2022-12-18T12:57:21.755Z,99216.10655899571
2022-12-18T13:01:26.875Z,99216.23030536422
2022-12-18T13:04:27.506Z,99214.25002750414
2022-12-18T13:07:24.672Z,99216.44956853097
2022-12-18T13:21:23.311Z,99227.85458595565
2022-12-18T13:24:25.768Z,99227.55746085495
2022-12-18T13:28:23.172Z,99230.03781364569
2022-12-18T13:31:59.292Z,99230.03781364569
2022-12-18T13:34:27.475Z,99237.04570976312
2022-12-18T13:37:52.839Z,99238.77222999887
2022-12-18T13:41:26.656Z,99240.76486532838
2022-12-18T13:44:28.933Z,99239.69674889054
2022-12-18T13:47:28.185Z,99245.48972131113
2022-12-18T13:51:18.950Z,99252.28709266493
2022-12-18T13:54:24.315Z,99256.17393681678
2022-12-18T13:57:27.700Z,99257.19768268034
2022-12-18T14:01:23.496Z,99260.86369418002
2022-12-18T14:04:21.355Z,99264.58864601231
2022-12-18T14:07:19.575Z,99268.26136322177
2022-12-18T14:11:22.355Z,99272.72035522979
2022-12-18T14:14:18.060Z,99275.526364182
2022-12-18T14:17:23.055Z,99280.3208258334
2022-12-18T14:21:21.365Z,99285.82087947408
2022-12-18T14:24:20.700Z,99293.82716600448
2022-12-18T14:27:24.098Z,99289.56984286435
2022-12-18T14:31:20.949Z,99291.76256844256
2022-12-18T14:34:17.314Z,99305.98309155645
2022-12-18T14:37:20.231Z,99304.10106516277
2022-12-18T14:41:18.823Z,99312.70208471043
2022-12-18T14:44:16.865Z,99310.29738142596
2022-12-18T14:47:17.857Z,99317.485782806
2022-12-18T14:51:21.267Z,99321.60707318113
2022-12-18T14:54:18.448Z,99319.39384218644
2022-12-18T14:57:22.383Z,99318.82436617947
2022-12-18T15:01:20.958Z,99320.01699179923
2022-12-18T15:04:27.226Z,99325.23689782253
2022-12-18T15:07:20.333Z,99324.2950836852
2022-12-18T15:11:48.504Z,99323.15580985222
2022-12-18T15:14:31.896Z,99325.27903425356
2022-12-18T15:17:19.844Z,99327.03410575802
2022-12-18T15:21:19.620Z,99332.3438585445
2022-12-18T15:24:23.365Z,99333.33128779959
2022-12-18T15:27:28.605Z,99331.81166954013
2022-12-18T15:31:24.654Z,99344.47752466646
2022-12-18T15:34:21.194Z,99344.35534812993
2022-12-18T15:37:17.267Z,99345.68119174785
2022-12-18T15:41:22.861Z,99347.995759317
2022-12-18T15:44:23.814Z,99352.08383455528
2022-12-18T15:47:17.116Z,99350.94807084485
2022-12-18T15:51:18.765Z,99357.29791296115
2022-12-18T15:54:17.328Z,99355.27487876364
2022-12-18T15:57:24.405Z,99351.67015742528
2022-12-18T16:01:17.329Z,99360.8356719915
2022-12-18T16:04:19.508Z,99363.38802746726
2022-12-18T16:07:19.475Z,99364.76507376292
2022-12-18T16:11:23.243Z,99368.015300637
2022-12-18T16:14:18.728Z,99366.6098713579
2022-12-18T16:17:17.101Z,99370.42930542902
2022-12-18T16:21:16.281Z,99374.30180149054
2022-12-18T16:24:19.876Z,99379.74806614997
2022-12-18T16:27:16.829Z,99380.83101609038
2022-12-18T16:31:16.991Z,99378.45382383588
2022-12-18T16:34:21.044Z,99384.33087158948
2022-12-18T16:37:17.343Z,99383.34920167373
2022-12-18T16:41:48.753Z,99389.65933555056
2022-12-18T16:44:17.500Z,99390.59058366818
2022-12-18T16:47:17.326Z,99388.29924115476
2022-12-18T16:51:16.790Z,99389.83375529754
2022-12-18T16:54:19.034Z,99392.55517741352
2022-12-18T16:57:19.741Z,99388.8770742329
2022-12-18T17:01:16.517Z,99393.58230230032
2022-12-18T17:04:17.828Z,99388.63713796988
2022-12-18T17:07:16.386Z,99392.92895975051
2022-12-18T17:11:16.400Z,99391.87800664951
2022-12-18T17:14:18.871Z,99391.47816719394
2022-12-18T17:17:22.237Z,99402.12679125421
2022-12-18T17:21:16.489Z,99403.77225477555
2022-12-18T17:24:19.627Z,99409.25300809823
2022-12-18T17:27:16.565Z,99413.04444984742
2022-12-18T17:31:18.706Z,99409.34616109985
2022-12-18T17:34:17.154Z,99412.64504928266
2022-12-18T17:37:17.193Z,99414.07122349943
2022-12-18T17:41:16.347Z,99417.20239148189
2022-12-18T17:44:17.647Z,99425.16395611192
2022-12-18T17:47:16.649Z,99429.61666319365
2022-12-18T17:51:16.986Z,99434.70155873147
2022-12-18T17:54:16.731Z,99439.62215068917
2022-12-18T17:57:16.685Z,99443.0079793459
2022-12-18T18:01:20.074Z,99451.12423558756
2022-12-18T18:04:16.859Z,99455.5796381902
2022-12-18T18:07:17.767Z,99457.20720875151
2022-12-18T18:21:16.795Z,99471.17302817001
2022-12-18T18:24:21.477Z,99471.34200392631
2022-12-18T18:27:18.585Z,99477.2131813681
2022-12-18T18:31:16.488Z,99488.02861259143
2022-12-18T18:34:20.310Z,99488.92287062797
2022-12-18T18:37:17.287Z,99489.80438330515
2022-12-18T18:41:16.780Z,99497.82093977135
2022-12-18T18:44:19.353Z,99502.07962707683
2022-12-18T18:47:17.138Z,99505.67015203998
2022-12-18T18:51:21.464Z,99508.19522730247
2022-12-18T18:54:16.634Z,99511.05744649826
2022-12-18T18:57:20.774Z,99510.09734355383
2022-12-18T19:01:19.627Z,99508.84909496809
2022-12-18T19:04:17.101Z,99512.9477152189
2022-12-18T19:07:18.528Z,99510.13325516172
2022-12-18T19:21:17.273Z,99516.87150261589
2022-12-18T19:24:17.390Z,99521.14905679568
2022-12-18T19:27:17.391Z,99519.74499196533
2022-12-18T19:31:22.840Z,99518.26779028839
2022-12-18T19:34:16.675Z,99528.3983673837
2022-12-18T19:37:16.899Z,99525.76232458212
2022-12-18T19:41:17.921Z,99532.95352999415
2022-12-18T19:44:18.985Z,99528.62251158501
2022-12-18T19:47:16.579Z,99533.24528938661
2022-12-18T19:51:18.137Z,99535.73871302733
2022-12-18T19:54:17.666Z,99533.64297334943
2022-12-18T19:57:16.446Z,99539.70559755489
2022-12-18T20:01:19.033Z,99545.39163556817
2022-12-18T20:04:17.570Z,99544.25337665694
2022-12-18T20:07:16.858Z,99546.01659038995
2022-12-18T20:11:17.198Z,99548.05495604473
2022-12-18T20:14:20.647Z,99549.76470608501
2022-12-18T20:17:17.238Z,99547.60783442925
2022-12-18T20:21:16.656Z,99546.04956224462
2022-12-18T20:24:16.991Z,99544.54872319984
2022-12-18T20:27:19.493Z,99549.8352575659
2022-12-18T20:31:18.564Z,99550.55514317586
2022-12-18T20:34:19.150Z,99548.36459810883
2022-12-18T20:37:17.326Z,99544.08346639076
2022-12-18T20:41:22.066Z,99546.26505013333
2022-12-18T20:44:22.004Z,99545.57742619216
2022-12-18T20:47:16.935Z,99549.78644216283
2022-12-18T20:51:20.733Z,99551.74492477458
2022-12-18T20:54:22.330Z,99553.24819148639
2022-12-18T20:57:17.737Z,99550.61808013161
2022-12-18T21:01:19.704Z,99553.45299194427
2022-12-18T21:04:20.053Z,99553.75412701398
2022-12-18T21:07:20.326Z,99552.0883584196
2022-12-18T21:12:34.956Z,99548.9685826994
2022-12-18T21:14:18.924Z,99554.10049871111
2022-12-18T21:17:16.788Z,99553.70967363485
2022-12-18T21:21:16.375Z,99558.06449416837
2022-12-18T21:24:17.395Z,99561.07410571419
2022-12-18T21:27:17.703Z,99564.06040321298
2022-12-18T21:31:17.828Z,99566.87903576657
2022-12-18T21:34:19.354Z,99571.60814631476
2022-12-18T21:37:17.861Z,99570.5807501605
2022-12-18T21:44:06.496Z,99571.45666634678
2022-12-18T21:44:17.824Z,99571.21912053127
2022-12-18T21:47:22.444Z,99578.3181384758
2022-12-18T21:51:16.374Z,99580.33019787785
2022-12-18T21:54:18.058Z,99585.67342137881
2022-12-18T21:57:18.829Z,99588.07890679777
2022-12-18T22:01:17.167Z,99583.68552309065
2022-12-18T22:04:17.429Z,99588.85211053984
2022-12-18T22:07:16.417Z,99596.17226025881
2022-12-18T22:11:16.104Z,99603.41999001564
2022-12-18T22:14:20.360Z,99604.74534241116
2022-12-18T22:17:16.446Z,99607.11583426832
2022-12-18T22:21:28.647Z,99609.90462401396
2022-12-18T22:24:18.670Z,99610.8898842314
2022-12-18T22:27:16.491Z,99616.43336630808
2022-12-18T22:31:16.519Z,99619.9359467742
2022-12-18T22:34:21.899Z,99623.45317473158
2022-12-18T22:37:16.762Z,99614.65418269495
2022-12-18T22:41:18.083Z,99618.38199868951
2022-12-18T22:44:18.149Z,99617.46574660788
2022-12-18T22:47:16.462Z,99620.6272619012
2022-12-18T22:51:17.812Z,99612.99313933126
2022-12-18T22:54:16.187Z,99610.47370319572
2022-12-18T22:57:16.411Z,99609.89023502095
2022-12-18T23:01:19.688Z,99612.51322348462
2022-12-18T23:04:16.797Z,99613.7458406772
2022-12-18T23:07:16.974Z,99611.34176325146
2022-12-18T23:11:18.281Z,99610.5114915687
2022-12-18T23:14:16.795Z,99610.46302043302
2022-12-18T23:17:17.338Z,99607.89482171329
2022-12-18T23:21:18.684Z,99599.20185992742
2022-12-18T23:24:16.919Z,99606.15411062267
2022-12-18T23:27:16.698Z,99605.60481802293
2022-12-18T23:31:18.497Z,99607.55136267889
2022-12-18T23:34:18.070Z,99610.90075257965
2022-12-18T23:37:29.957Z,99612.09210865023
2022-12-18T23:41:17.392Z,99609.8783281506
2022-12-18T23:44:16.211Z,99617.2328106176
2022-12-18T23:47:16.088Z,99612.24304114038
2022-12-18T23:51:18.950Z,99613.57608731001
2022-12-18T23:54:16.579Z,99623.78595103824
2022-12-18T23:57:17.347Z,99613.72724651647
